createdAt,value
2023-01-21T00:00:39.686Z,0.00
2023-01-21T00:01:39.652Z,0.00
2023-01-21T00:02:39.670Z,0.00
2023-01-21T00:03:39.707Z,0.00
2023-01-21T00:04:39.626Z,0.00
2023-01-21T00:05:39.612Z,0.00
2023-01-21T00:06:39.607Z,0.00
2023-01-21T00:07:39.592Z,0.00
2023-01-21T00:08:39.575Z,0.00
2023-01-21T00:09:39.574Z,0.00
2023-01-21T00:10:39.554Z,0.00
2023-01-21T00:11:39.538Z,0.00
2023-01-21T00:12:39.545Z,0.00
2023-01-21T00:13:39.511Z,0.00
2023-01-21T00:14:39.509Z,0.00
2023-01-21T00:15:39.540Z,0.00
2023-01-21T00:16:39.503Z,0.00
2023-01-21T00:17:40.288Z,0.00
2023-01-21T00:18:39.473Z,0.00
2023-01-21T00:19:39.439Z,0.00
2023-01-21T00:20:39.421Z,0.00
2023-01-21T00:21:39.418Z,0.00
2023-01-21T00:22:39.423Z,0.00
2023-01-21T00:23:39.395Z,0.00
2023-01-21T00:24:39.378Z,0.00
2023-01-21T00:25:39.357Z,0.00
2023-01-21T00:26:39.352Z,0.00
2023-01-21T00:27:39.348Z,0.00
2023-01-21T00:28:39.328Z,0.00
2023-01-21T00:29:39.314Z,0.00
2023-01-21T00:30:39.350Z,0.00
2023-01-21T00:31:39.372Z,0.00
2023-01-21T00:32:39.294Z,0.00
2023-01-21T00:33:39.275Z,0.00
2023-01-21T00:34:39.257Z,0.00
2023-01-21T00:35:39.237Z,0.00
2023-01-21T00:36:39.228Z,0.00
2023-01-21T00:37:39.225Z,0.00
2023-01-21T00:38:39.202Z,0.00
2023-01-21T00:39:39.185Z,0.00
2023-01-21T00:40:39.189Z,0.00
2023-01-21T00:41:39.155Z,0.00
2023-01-21T00:42:39.173Z,0.00
2023-01-21T00:43:39.139Z,0.00
2023-01-21T00:44:39.129Z,0.00
2023-01-21T00:45:39.108Z,0.00
2023-01-21T00:46:39.135Z,0.00
2023-01-21T00:47:39.088Z,0.00
2023-01-21T00:48:39.084Z,0.00
2023-01-21T00:49:39.068Z,0.00
2023-01-21T00:50:39.079Z,0.00
2023-01-21T00:51:39.055Z,0.00
2023-01-21T00:52:39.049Z,0.00
2023-01-21T00:53:39.016Z,0.00
2023-01-21T00:54:39.000Z,0.00
2023-01-21T00:55:38.999Z,0.00
2023-01-21T00:56:38.975Z,0.00
2023-01-21T00:57:38.970Z,0.00
2023-01-21T00:58:38.962Z,0.00
2023-01-21T00:59:38.945Z,0.00
2023-01-21T01:00:39.140Z,0.00
2023-01-21T01:01:39.212Z,0.00
2023-01-21T01:02:38.952Z,0.00
2023-01-21T01:03:38.898Z,0.00
2023-01-21T01:04:38.884Z,0.00
2023-01-21T01:05:38.862Z,0.00
2023-01-21T01:06:38.858Z,0.00
2023-01-21T01:07:38.863Z,0.00
2023-01-21T01:08:38.834Z,0.00
2023-01-21T01:09:38.807Z,0.00
2023-01-21T01:10:38.809Z,0.00
2023-01-21T01:11:38.792Z,0.00
2023-01-21T01:12:38.791Z,0.00
2023-01-21T01:13:38.762Z,0.00
2023-01-21T01:14:38.775Z,0.00
2023-01-21T01:15:38.783Z,0.00
2023-01-21T01:16:38.992Z,0.00
2023-01-21T01:17:38.733Z,0.00
2023-01-21T01:18:38.709Z,0.00
2023-01-21T01:19:38.695Z,0.00
2023-01-21T01:20:38.696Z,0.00
2023-01-21T01:21:38.675Z,0.00
2023-01-21T01:22:38.680Z,0.00
2023-01-21T01:23:38.637Z,0.00
2023-01-21T01:24:38.631Z,0.00
2023-01-21T01:25:38.615Z,0.00
2023-01-21T01:26:39.980Z,0.00
2023-01-21T01:27:38.603Z,0.00
2023-01-21T01:28:38.607Z,0.00
2023-01-21T01:29:38.561Z,0.00
2023-01-21T01:30:38.556Z,0.00
2023-01-21T01:31:38.601Z,0.00
2023-01-21T01:32:38.542Z,0.00
2023-01-21T01:33:38.553Z,0.00
2023-01-21T01:34:38.527Z,0.00
2023-01-21T01:35:38.490Z,0.00
2023-01-21T01:36:38.502Z,0.00
2023-01-21T01:37:38.475Z,0.00
2023-01-21T01:38:38.470Z,0.00
2023-01-21T01:39:38.446Z,0.00
2023-01-21T01:40:38.434Z,0.00
2023-01-21T01:41:38.412Z,0.00
2023-01-21T01:42:38.419Z,0.00
2023-01-21T01:43:38.400Z,0.00
2023-01-21T01:44:38.379Z,0.00
2023-01-21T01:45:38.367Z,0.00
2023-01-21T01:46:38.448Z,0.00
2023-01-21T01:47:38.353Z,0.00
2023-01-21T01:48:38.347Z,0.00
2023-01-21T01:49:38.320Z,0.00
2023-01-21T01:50:38.319Z,0.00
2023-01-21T01:51:38.316Z,0.00
2023-01-21T01:52:38.319Z,0.00
2023-01-21T01:53:38.267Z,0.00
2023-01-21T01:54:38.259Z,0.00
2023-01-21T01:55:38.239Z,0.00
2023-01-21T01:56:38.248Z,0.00
2023-01-21T01:57:38.240Z,0.00
2023-01-21T01:58:38.209Z,0.00
2023-01-21T01:59:38.194Z,0.00
2023-01-21T02:00:38.186Z,0.00
2023-01-21T02:01:38.170Z,0.00
2023-01-21T02:02:38.191Z,0.00
2023-01-21T02:03:38.141Z,0.00
2023-01-21T02:04:38.139Z,0.00
2023-01-21T02:05:38.119Z,0.00
2023-01-21T02:06:38.119Z,0.00
2023-01-21T02:07:38.105Z,0.00
2023-01-21T02:08:38.087Z,0.00
2023-01-21T02:09:38.081Z,0.00
2023-01-21T02:10:38.074Z,0.00
2023-01-21T02:11:38.050Z,0.00
2023-01-21T02:12:38.819Z,0.00
2023-01-21T02:13:38.302Z,0.00
2023-01-21T02:14:38.011Z,0.00
2023-01-21T02:15:38.001Z,0.00
2023-01-21T02:16:37.989Z,0.00
2023-01-21T02:17:38.232Z,0.00
2023-01-21T02:18:37.961Z,0.00
2023-01-21T02:19:37.961Z,0.00
2023-01-21T02:20:37.932Z,0.00
2023-01-21T02:21:37.929Z,0.00
2023-01-21T02:22:37.924Z,0.00
2023-01-21T02:23:37.917Z,0.00
2023-01-21T02:24:37.892Z,0.00
2023-01-21T02:25:37.881Z,0.00
2023-01-21T02:26:37.860Z,0.00
2023-01-21T02:27:37.874Z,0.00
2023-01-21T02:28:37.840Z,0.00
2023-01-21T02:29:37.832Z,0.00
2023-01-21T02:30:37.808Z,0.00
2023-01-21T02:31:37.848Z,0.00
2023-01-21T02:32:38.579Z,0.00
2023-01-21T02:33:37.779Z,0.00
2023-01-21T02:34:37.770Z,0.00
2023-01-21T02:35:37.770Z,0.00
2023-01-21T02:36:37.763Z,0.00
2023-01-21T02:37:37.740Z,0.00
2023-01-21T02:38:37.702Z,0.00
2023-01-21T02:39:37.702Z,0.00
2023-01-21T02:40:37.685Z,0.00
2023-01-21T02:41:37.678Z,0.00
2023-01-21T02:42:37.695Z,0.00
2023-01-21T02:43:37.804Z,0.00
2023-01-21T02:44:37.649Z,0.00
2023-01-21T02:45:37.626Z,0.00
2023-01-21T02:46:37.728Z,0.00
2023-01-21T02:47:37.608Z,0.00
2023-01-21T02:48:37.580Z,0.00
2023-01-21T02:49:37.582Z,0.00
2023-01-21T02:50:37.559Z,0.00
2023-01-21T02:51:37.558Z,0.00
2023-01-21T02:52:37.544Z,0.00
2023-01-21T02:53:37.517Z,0.00
2023-01-21T02:54:37.514Z,0.00
2023-01-21T02:55:37.736Z,0.00
2023-01-21T02:56:37.494Z,0.00
2023-01-21T02:57:37.485Z,0.00
2023-01-21T02:58:37.468Z,0.00
2023-01-21T02:59:37.461Z,0.00
2023-01-21T03:00:37.473Z,0.00
2023-01-21T03:01:37.434Z,0.00
2023-01-21T03:02:37.419Z,0.00
2023-01-21T03:03:37.460Z,0.00
2023-01-21T03:04:37.376Z,0.00
2023-01-21T03:05:37.366Z,0.00
2023-01-21T03:06:37.361Z,0.00
2023-01-21T03:07:37.360Z,0.00
2023-01-21T03:08:38.383Z,0.00
2023-01-21T03:09:37.341Z,0.00
2023-01-21T03:10:37.311Z,0.00
2023-01-21T03:11:37.297Z,0.00
2023-01-21T03:12:37.307Z,0.00
2023-01-21T03:13:37.267Z,0.00
2023-01-21T03:14:37.256Z,0.00
2023-01-21T03:15:37.248Z,0.00
2023-01-21T03:16:39.330Z,0.00
2023-01-21T03:17:37.235Z,0.00
2023-01-21T03:18:37.208Z,0.00
2023-01-21T03:19:37.196Z,0.00
2023-01-21T03:20:37.184Z,0.00
2023-01-21T03:21:37.168Z,0.00
2023-01-21T03:22:37.165Z,0.00
2023-01-21T03:23:37.160Z,0.00
2023-01-21T03:24:37.128Z,0.00
2023-01-21T03:25:37.126Z,0.00
2023-01-21T03:26:37.129Z,0.00
2023-01-21T03:27:37.115Z,0.00
2023-01-21T03:28:37.092Z,0.00
2023-01-21T03:29:37.085Z,0.00
2023-01-21T03:30:37.132Z,0.00
2023-01-21T03:31:37.086Z,0.00
2023-01-21T03:32:37.062Z,0.00
2023-01-21T03:33:37.029Z,0.00
2023-01-21T03:34:36.999Z,0.00
2023-01-21T03:35:36.996Z,0.00
2023-01-21T03:36:36.993Z,0.00
2023-01-21T03:37:37.749Z,0.00
2023-01-21T03:38:36.963Z,0.00
2023-01-21T03:39:37.756Z,0.00
2023-01-21T03:40:36.939Z,0.00
2023-01-21T03:41:37.756Z,0.00
2023-01-21T03:42:36.930Z,0.00
2023-01-21T03:43:37.734Z,0.00
2023-01-21T03:44:36.891Z,0.00
2023-01-21T03:45:36.897Z,0.00
2023-01-21T03:46:36.871Z,0.00
2023-01-21T03:47:38.408Z,0.00
2023-01-21T03:48:36.851Z,0.00
2023-01-21T03:49:36.812Z,0.00
2023-01-21T03:50:36.841Z,0.00
2023-01-21T03:51:36.804Z,0.00
2023-01-21T03:52:36.806Z,0.00
2023-01-21T03:53:36.780Z,0.00
2023-01-21T03:54:36.753Z,0.00
2023-01-21T03:55:36.748Z,0.00
2023-01-21T03:56:36.733Z,0.00
2023-01-21T03:57:36.722Z,0.00
2023-01-21T03:58:36.702Z,0.00
2023-01-21T03:59:36.697Z,0.00
2023-01-21T04:00:36.690Z,0.00
2023-01-21T04:01:36.664Z,0.00
2023-01-21T04:02:37.717Z,0.00
2023-01-21T04:03:36.643Z,0.00
2023-01-21T04:04:36.634Z,0.00
2023-01-21T04:05:36.628Z,0.00
2023-01-21T04:06:36.604Z,0.00
2023-01-21T04:07:36.606Z,0.00
2023-01-21T04:08:36.584Z,0.00
2023-01-21T04:09:36.581Z,0.00
2023-01-21T04:10:36.568Z,0.00
2023-01-21T04:11:36.559Z,0.00
2023-01-21T04:12:36.534Z,0.00
2023-01-21T04:13:36.530Z,0.00
2023-01-21T04:14:36.504Z,0.00
2023-01-21T04:15:36.515Z,0.00
2023-01-21T04:16:36.530Z,0.00
2023-01-21T04:17:36.486Z,0.00
2023-01-21T04:18:36.469Z,0.00
2023-01-21T04:19:36.445Z,0.00
2023-01-21T04:20:36.427Z,0.00
2023-01-21T04:21:37.986Z,0.00
2023-01-21T04:22:36.442Z,0.00
2023-01-21T04:23:36.447Z,0.00
2023-01-21T04:24:36.383Z,0.00
2023-01-21T04:25:36.406Z,0.00
2023-01-21T04:26:36.370Z,0.00
2023-01-21T04:27:36.367Z,0.00
2023-01-21T04:28:37.871Z,0.00
2023-01-21T04:29:37.817Z,0.00
2023-01-21T04:30:36.329Z,0.00
2023-01-21T04:31:36.346Z,0.00
2023-01-21T04:32:36.321Z,0.00
2023-01-21T04:33:36.277Z,0.00
2023-01-21T04:34:36.266Z,0.00
2023-01-21T04:35:36.256Z,0.00
2023-01-21T04:36:36.225Z,0.00
2023-01-21T04:37:36.250Z,0.00
2023-01-21T04:38:36.208Z,0.00
2023-01-21T04:39:36.211Z,0.00
2023-01-21T04:40:36.178Z,0.00
2023-01-21T04:41:36.168Z,0.00
2023-01-21T04:42:37.179Z,0.00
2023-01-21T04:43:36.157Z,0.00
2023-01-21T04:44:36.172Z,0.00
2023-01-21T04:45:36.153Z,0.00
2023-01-21T04:46:36.114Z,0.00
2023-01-21T04:47:36.099Z,0.00
2023-01-21T04:48:37.605Z,0.00
2023-01-21T04:49:36.078Z,0.00
2023-01-21T04:50:36.060Z,0.00
2023-01-21T04:51:36.081Z,0.00
2023-01-21T04:52:36.055Z,0.00
2023-01-21T04:53:38.034Z,0.00
2023-01-21T04:54:36.015Z,0.00
2023-01-21T04:55:35.995Z,0.00
2023-01-21T04:56:36.287Z,0.00
2023-01-21T04:57:35.986Z,0.00
2023-01-21T04:58:35.956Z,0.00
2023-01-21T04:59:36.210Z,0.00
2023-01-21T05:00:35.952Z,0.00
2023-01-21T05:01:35.930Z,0.00
2023-01-21T05:02:35.971Z,0.00
2023-01-21T05:03:36.714Z,0.00
2023-01-21T05:04:35.911Z,0.00
2023-01-21T05:05:35.887Z,0.00
2023-01-21T05:06:35.861Z,0.00
2023-01-21T05:07:35.866Z,0.00
2023-01-21T05:08:35.834Z,0.00
2023-01-21T05:09:35.839Z,0.00
2023-01-21T05:10:35.812Z,0.00
2023-01-21T05:11:35.836Z,0.00
2023-01-21T05:12:35.805Z,0.00
2023-01-21T05:13:35.777Z,0.00
2023-01-21T05:14:35.753Z,0.00
2023-01-21T05:15:35.776Z,0.00
2023-01-21T05:16:35.781Z,0.00
2023-01-21T05:17:35.745Z,0.00
2023-01-21T05:18:35.699Z,0.00
2023-01-21T05:19:37.204Z,0.00
2023-01-21T05:20:35.690Z,0.00
2023-01-21T05:21:35.672Z,0.00
2023-01-21T05:22:35.687Z,0.00
2023-01-21T05:23:35.650Z,0.00
2023-01-21T05:24:35.623Z,0.00
2023-01-21T05:25:35.612Z,0.00
2023-01-21T05:26:35.605Z,0.00
2023-01-21T05:27:35.614Z,0.00
2023-01-21T05:28:35.590Z,0.00
2023-01-21T05:29:35.584Z,0.00
2023-01-21T05:30:35.605Z,0.00
2023-01-21T05:31:35.621Z,0.00
2023-01-21T05:32:35.557Z,0.00
2023-01-21T05:33:35.528Z,0.00
2023-01-21T05:34:35.504Z,0.00
2023-01-21T05:35:36.528Z,0.00
2023-01-21T05:36:35.498Z,0.00
2023-01-21T05:37:35.480Z,0.00
2023-01-21T05:38:35.473Z,0.00
2023-01-21T05:39:35.445Z,0.00
2023-01-21T05:40:35.492Z,0.00
2023-01-21T05:41:35.432Z,0.00
2023-01-21T05:42:35.420Z,0.00
2023-01-21T05:43:35.395Z,0.00
2023-01-21T05:44:35.379Z,0.00
2023-01-21T05:45:35.380Z,0.00
2023-01-21T05:46:35.349Z,0.00
2023-01-21T05:47:37.114Z,0.00
2023-01-21T05:48:35.325Z,0.00
2023-01-21T05:49:36.856Z,0.00
2023-01-21T05:50:35.300Z,0.00
2023-01-21T05:51:35.304Z,0.00
2023-01-21T05:52:35.286Z,0.00
2023-01-21T05:53:35.268Z,0.00
2023-01-21T05:54:35.266Z,0.00
2023-01-21T05:55:35.267Z,0.00
2023-01-21T05:56:35.222Z,0.00
2023-01-21T05:57:35.227Z,0.00
2023-01-21T05:58:35.203Z,0.00
2023-01-21T05:59:35.199Z,0.00
2023-01-21T06:00:35.189Z,0.00
2023-01-21T06:01:35.165Z,0.00
2023-01-21T06:02:35.207Z,0.00
2023-01-21T06:03:35.241Z,0.00
2023-01-21T06:04:35.155Z,0.00
2023-01-21T06:05:35.119Z,0.00
2023-01-21T06:06:35.119Z,0.00
2023-01-21T06:07:35.098Z,0.00
2023-01-21T06:08:35.081Z,0.00
2023-01-21T06:09:35.070Z,0.00
2023-01-21T06:10:35.050Z,0.00
2023-01-21T06:11:35.038Z,0.00
2023-01-21T06:12:35.039Z,0.00
2023-01-21T06:13:35.030Z,0.00
2023-01-21T06:14:36.517Z,0.00
2023-01-21T06:15:35.027Z,0.00
2023-01-21T06:16:35.007Z,0.00
2023-01-21T06:17:34.992Z,0.00
2023-01-21T06:18:34.951Z,0.00
2023-01-21T06:19:34.940Z,0.00
2023-01-21T06:20:34.928Z,0.00
2023-01-21T06:21:34.921Z,0.00
2023-01-21T06:22:34.911Z,0.00
2023-01-21T06:23:34.900Z,0.00
2023-01-21T06:24:34.890Z,0.00
2023-01-21T06:25:34.860Z,0.00
2023-01-21T06:26:34.852Z,0.00
2023-01-21T06:27:34.857Z,0.00
2023-01-21T06:28:34.842Z,0.00
2023-01-21T06:29:34.831Z,0.00
2023-01-21T06:30:34.811Z,0.00
2023-01-21T06:31:34.941Z,0.00
2023-01-21T06:32:34.795Z,0.00
2023-01-21T06:33:34.772Z,0.00
2023-01-21T06:34:34.751Z,0.00
2023-01-21T06:35:34.742Z,0.00
2023-01-21T06:36:34.723Z,0.00
2023-01-21T06:37:34.731Z,0.00
2023-01-21T06:38:34.708Z,0.00
2023-01-21T06:39:34.691Z,0.00
2023-01-21T06:40:34.687Z,0.00
2023-01-21T06:41:34.663Z,0.00
2023-01-21T06:42:34.654Z,0.00
2023-01-21T06:43:34.885Z,0.00
2023-01-21T06:44:34.625Z,0.00
2023-01-21T06:45:34.614Z,0.00
2023-01-21T06:46:34.636Z,0.00
2023-01-21T06:47:34.611Z,0.00
2023-01-21T06:48:34.586Z,0.00
2023-01-21T06:49:36.603Z,0.00
2023-01-21T06:50:34.555Z,0.00
2023-01-21T06:51:34.553Z,0.00
2023-01-21T06:52:34.566Z,0.00
2023-01-21T06:53:34.537Z,0.00
2023-01-21T06:54:34.525Z,0.00
2023-01-21T06:55:34.485Z,0.00
2023-01-21T06:56:34.476Z,0.00
2023-01-21T06:57:35.243Z,0.00
2023-01-21T06:58:34.455Z,0.00
2023-01-21T06:59:34.454Z,0.00
2023-01-21T07:00:34.488Z,0.00
2023-01-21T07:01:34.464Z,0.00
2023-01-21T07:02:34.546Z,5.62
2023-01-21T07:03:34.387Z,5.62
2023-01-21T07:04:34.403Z,5.62
2023-01-21T07:05:34.410Z,5.62
2023-01-21T07:06:34.374Z,5.62
2023-01-21T07:07:34.358Z,5.62
2023-01-21T07:08:34.607Z,5.62
2023-01-21T07:09:34.318Z,5.62
2023-01-21T07:10:34.317Z,11.25
2023-01-21T07:11:34.284Z,11.25
2023-01-21T07:12:34.296Z,11.25
2023-01-21T07:13:34.266Z,11.25
2023-01-21T07:14:34.272Z,11.25
2023-01-21T07:15:35.801Z,11.25
2023-01-21T07:16:34.239Z,11.25
2023-01-21T07:17:34.227Z,11.25
2023-01-21T07:18:34.217Z,11.25
2023-01-21T07:19:34.197Z,16.88
2023-01-21T07:20:34.178Z,16.88
2023-01-21T07:21:34.171Z,16.88
2023-01-21T07:22:34.156Z,16.88
2023-01-21T07:23:34.138Z,22.50
2023-01-21T07:24:34.130Z,22.50
2023-01-21T07:25:34.126Z,22.50
2023-01-21T07:26:34.108Z,22.50
2023-01-21T07:27:34.089Z,22.50
2023-01-21T07:28:34.099Z,28.12
2023-01-21T07:29:34.082Z,28.12
2023-01-21T07:30:34.083Z,28.12
2023-01-21T07:31:34.150Z,28.12
2023-01-21T07:32:34.039Z,28.12
2023-01-21T07:33:34.014Z,33.75
2023-01-21T07:34:34.000Z,33.75
2023-01-21T07:35:33.986Z,33.75
2023-01-21T07:36:33.979Z,33.75
2023-01-21T07:37:33.973Z,39.38
2023-01-21T07:38:33.961Z,39.38
2023-01-21T07:39:33.934Z,39.38
2023-01-21T07:40:33.930Z,39.38
2023-01-21T07:41:35.007Z,45.00
2023-01-21T07:42:33.933Z,45.00
2023-01-21T07:43:33.892Z,45.00
2023-01-21T07:44:33.876Z,45.00
2023-01-21T07:45:33.878Z,39.38
2023-01-21T07:46:33.904Z,39.38
2023-01-21T07:47:33.858Z,45.00
2023-01-21T07:48:33.832Z,45.00
2023-01-21T07:49:33.813Z,45.00
2023-01-21T07:50:34.865Z,45.00
2023-01-21T07:51:35.336Z,45.00
2023-01-21T07:52:33.791Z,45.00
2023-01-21T07:53:34.724Z,45.00
2023-01-21T07:54:33.751Z,50.62
2023-01-21T07:55:33.742Z,50.62
2023-01-21T07:56:33.721Z,50.62
2023-01-21T07:57:33.732Z,56.25
2023-01-21T07:58:33.714Z,56.25
2023-01-21T07:59:33.693Z,61.88
2023-01-21T08:00:33.674Z,61.88
2023-01-21T08:01:34.561Z,61.88
2023-01-21T08:02:33.799Z,61.88
2023-01-21T08:03:33.634Z,67.50
2023-01-21T08:04:33.628Z,67.50
2023-01-21T08:05:33.629Z,73.12
2023-01-21T08:06:33.605Z,73.12
2023-01-21T08:07:33.599Z,73.12
2023-01-21T08:08:33.588Z,73.12
2023-01-21T08:09:33.563Z,73.12
2023-01-21T08:10:33.557Z,73.12
2023-01-21T08:11:34.496Z,73.12
2023-01-21T08:12:33.534Z,73.12
2023-01-21T08:13:33.504Z,73.12
2023-01-21T08:14:33.518Z,73.12
2023-01-21T08:15:33.521Z,73.12
2023-01-21T08:16:33.593Z,73.12
2023-01-21T08:17:33.479Z,78.75
2023-01-21T08:18:33.471Z,84.38
2023-01-21T08:19:33.445Z,84.38
2023-01-21T08:20:33.455Z,84.38
2023-01-21T08:21:33.417Z,84.38
2023-01-21T08:22:33.414Z,84.38
2023-01-21T08:23:33.386Z,90.00
2023-01-21T08:24:33.386Z,95.62
2023-01-21T08:25:33.366Z,101.25
2023-01-21T08:26:33.357Z,101.25
2023-01-21T08:27:33.357Z,101.25
2023-01-21T08:28:33.334Z,101.25
2023-01-21T08:29:33.318Z,101.25
2023-01-21T08:30:33.373Z,106.88
2023-01-21T08:31:33.340Z,106.88
2023-01-21T08:32:33.378Z,112.50
2023-01-21T08:33:33.265Z,112.50
2023-01-21T08:34:33.247Z,112.50
2023-01-21T08:35:33.236Z,112.50
2023-01-21T08:36:34.191Z,118.12
2023-01-21T08:37:33.222Z,123.75
2023-01-21T08:38:33.196Z,129.38
2023-01-21T08:39:34.138Z,129.38
2023-01-21T08:40:33.338Z,129.38
2023-01-21T08:41:33.165Z,129.38
2023-01-21T08:42:33.167Z,129.38
2023-01-21T08:43:33.141Z,135.00
2023-01-21T08:44:33.136Z,146.25
2023-01-21T08:45:33.157Z,151.88
2023-01-21T08:46:33.109Z,151.88
2023-01-21T08:47:33.098Z,157.50
2023-01-21T08:48:33.079Z,157.50
2023-01-21T08:49:33.067Z,163.12
2023-01-21T08:50:33.864Z,168.75
2023-01-21T08:51:33.071Z,168.75
2023-01-21T08:52:34.579Z,163.12
2023-01-21T08:53:33.036Z,157.50
2023-01-21T08:54:33.017Z,157.50
2023-01-21T08:55:33.004Z,157.50
2023-01-21T08:56:33.132Z,163.12
2023-01-21T08:57:32.991Z,168.75
2023-01-21T08:58:32.961Z,174.38
2023-01-21T08:59:32.940Z,174.38
2023-01-21T09:00:32.941Z,180.00
2023-01-21T09:01:32.910Z,185.62
2023-01-21T09:02:32.915Z,185.62
2023-01-21T09:03:32.881Z,185.62
2023-01-21T09:04:32.880Z,196.88
2023-01-21T09:05:32.864Z,202.50
2023-01-21T09:06:32.859Z,202.50
2023-01-21T09:07:32.851Z,196.88
2023-01-21T09:08:32.831Z,202.50
2023-01-21T09:09:32.847Z,208.12
2023-01-21T09:10:32.824Z,213.75
2023-01-21T09:11:32.816Z,219.38
2023-01-21T09:12:32.823Z,219.38
2023-01-21T09:13:32.760Z,213.75
2023-01-21T09:14:32.753Z,208.12
2023-01-21T09:15:32.781Z,202.50
2023-01-21T09:16:33.581Z,208.12
2023-01-21T09:17:32.735Z,208.12
2023-01-21T09:18:32.712Z,219.38
2023-01-21T09:19:33.513Z,225.00
2023-01-21T09:20:32.694Z,230.62
2023-01-21T09:21:32.689Z,230.62
2023-01-21T09:22:32.681Z,236.25
2023-01-21T09:23:32.667Z,247.50
2023-01-21T09:24:33.362Z,258.75
2023-01-21T09:25:32.624Z,247.50
2023-01-21T09:26:32.617Z,253.12
2023-01-21T09:27:32.612Z,247.50
2023-01-21T09:28:32.576Z,247.50
2023-01-21T09:29:32.573Z,253.12
2023-01-21T09:30:32.580Z,281.25
2023-01-21T09:31:34.097Z,298.12
2023-01-21T09:32:32.544Z,309.38
2023-01-21T09:33:32.533Z,309.38
2023-01-21T09:34:35.492Z,303.75
2023-01-21T09:35:32.502Z,303.75
2023-01-21T09:36:32.494Z,331.88
2023-01-21T09:37:33.045Z,337.50
2023-01-21T09:38:32.469Z,331.88
2023-01-21T09:39:32.459Z,331.88
2023-01-21T09:40:32.437Z,326.25
2023-01-21T09:41:32.424Z,326.25
2023-01-21T09:42:32.436Z,326.25
2023-01-21T09:43:32.393Z,326.25
2023-01-21T09:44:32.390Z,326.25
2023-01-21T09:45:32.392Z,337.50
2023-01-21T09:46:32.355Z,331.88
2023-01-21T09:47:32.577Z,337.50
2023-01-21T09:48:32.365Z,331.88
2023-01-21T09:49:32.327Z,337.50
2023-01-21T09:50:32.328Z,331.88
2023-01-21T09:51:32.289Z,315.00
2023-01-21T09:52:32.300Z,309.38
2023-01-21T09:53:32.277Z,309.38
2023-01-21T09:54:32.257Z,303.75
2023-01-21T09:55:32.251Z,303.75
2023-01-21T09:56:32.230Z,303.75
2023-01-21T09:57:32.223Z,303.75
2023-01-21T09:58:32.484Z,315.00
2023-01-21T09:59:32.210Z,309.38
2023-01-21T10:00:32.205Z,309.38
2023-01-21T10:01:32.242Z,309.38
2023-01-21T10:02:32.208Z,315.00
2023-01-21T10:03:32.155Z,303.75
2023-01-21T10:04:32.201Z,298.12
2023-01-21T10:05:32.749Z,298.12
2023-01-21T10:06:32.152Z,286.88
2023-01-21T10:07:32.109Z,298.12
2023-01-21T10:08:32.115Z,303.75
2023-01-21T10:09:32.087Z,309.38
2023-01-21T10:10:32.081Z,303.75
2023-01-21T10:11:32.060Z,292.50
2023-01-21T10:12:32.049Z,292.50
2023-01-21T10:13:32.020Z,303.75
2023-01-21T10:14:32.270Z,298.12
2023-01-21T10:15:32.000Z,309.38
2023-01-21T10:16:32.015Z,320.62
2023-01-21T10:17:31.987Z,337.50
2023-01-21T10:18:31.964Z,337.50
2023-01-21T10:19:31.953Z,343.12
2023-01-21T10:20:31.953Z,337.50
2023-01-21T10:21:31.924Z,303.75
2023-01-21T10:22:31.926Z,286.88
2023-01-21T10:23:31.899Z,292.50
2023-01-21T10:24:31.907Z,298.12
2023-01-21T10:25:31.893Z,298.12
2023-01-21T10:26:32.147Z,292.50
2023-01-21T10:27:31.857Z,303.75
2023-01-21T10:28:31.862Z,320.62
2023-01-21T10:29:31.830Z,331.88
2023-01-21T10:30:31.894Z,326.25
2023-01-21T10:31:31.886Z,343.12
2023-01-21T10:32:31.821Z,343.12
2023-01-21T10:33:32.584Z,337.50
2023-01-21T10:34:31.779Z,320.62
2023-01-21T10:35:31.760Z,320.62
2023-01-21T10:36:34.213Z,326.25
2023-01-21T10:37:31.746Z,315.00
2023-01-21T10:38:31.729Z,315.00
2023-01-21T10:39:31.707Z,337.50
2023-01-21T10:40:31.695Z,343.12
2023-01-21T10:41:31.680Z,326.25
2023-01-21T10:42:31.677Z,320.62
2023-01-21T10:43:31.667Z,320.62
2023-01-21T10:44:31.658Z,326.25
2023-01-21T10:45:31.635Z,331.88
2023-01-21T10:46:31.617Z,337.50
2023-01-21T10:47:31.625Z,343.12
2023-01-21T10:48:31.603Z,343.12
2023-01-21T10:49:31.590Z,354.38
2023-01-21T10:50:31.607Z,360.00
2023-01-21T10:51:31.820Z,354.38
2023-01-21T10:52:31.545Z,354.38
2023-01-21T10:53:31.569Z,343.12
2023-01-21T10:54:31.517Z,343.12
2023-01-21T10:55:31.525Z,337.50
2023-01-21T10:56:31.502Z,348.75
2023-01-21T10:57:31.509Z,354.38
2023-01-21T10:58:31.490Z,343.12
2023-01-21T10:59:33.308Z,343.12
2023-01-21T11:00:31.709Z,348.75
2023-01-21T11:01:31.501Z,337.50
2023-01-21T11:02:31.509Z,343.12
2023-01-21T11:03:31.439Z,348.75
2023-01-21T11:04:31.425Z,360.00
2023-01-21T11:05:31.398Z,371.25
2023-01-21T11:06:31.370Z,371.25
2023-01-21T11:07:31.396Z,365.62
2023-01-21T11:08:31.352Z,360.00
2023-01-21T11:09:31.343Z,360.00
2023-01-21T11:10:31.371Z,360.00
2023-01-21T11:11:31.350Z,360.00
2023-01-21T11:12:31.309Z,360.00
2023-01-21T11:13:31.300Z,354.38
2023-01-21T11:14:31.296Z,343.12
2023-01-21T11:15:31.313Z,337.50
2023-01-21T11:16:31.263Z,343.12
2023-01-21T11:17:31.498Z,337.50
2023-01-21T11:18:31.246Z,326.25
2023-01-21T11:19:31.232Z,315.00
2023-01-21T11:20:31.198Z,320.62
2023-01-21T11:21:31.207Z,326.25
2023-01-21T11:22:31.197Z,326.25
2023-01-21T11:23:31.170Z,320.62
2023-01-21T11:24:31.160Z,315.00
2023-01-21T11:25:31.151Z,326.25
2023-01-21T11:26:31.120Z,337.50
2023-01-21T11:27:31.155Z,343.12
2023-01-21T11:28:31.101Z,348.75
2023-01-21T11:29:31.097Z,348.75
2023-01-21T11:30:49.128Z,337.50
2023-01-21T11:31:32.163Z,337.50
2023-01-21T11:32:31.076Z,343.12
2023-01-21T11:33:31.041Z,331.88
2023-01-21T11:34:31.046Z,337.50
2023-01-21T11:35:31.020Z,337.50
2023-01-21T11:36:31.019Z,337.50
2023-01-21T11:37:31.242Z,337.50
2023-01-21T11:38:30.980Z,337.50
2023-01-21T11:39:30.974Z,343.12
2023-01-21T11:40:30.964Z,354.38
2023-01-21T11:41:30.953Z,348.75
2023-01-21T11:42:30.935Z,354.38
2023-01-21T11:43:30.930Z,360.00
2023-01-21T11:44:30.924Z,354.38
2023-01-21T11:45:30.922Z,376.88
2023-01-21T11:46:30.951Z,382.50
2023-01-21T11:47:30.889Z,365.62
2023-01-21T11:48:30.864Z,354.38
2023-01-21T11:49:30.860Z,343.12
2023-01-21T11:50:30.826Z,326.25
2023-01-21T11:51:30.845Z,320.62
2023-01-21T11:52:30.837Z,326.25
2023-01-21T11:53:30.788Z,309.38
2023-01-21T11:54:30.786Z,309.38
2023-01-21T11:55:30.781Z,309.38
2023-01-21T11:56:30.766Z,303.75
2023-01-21T11:57:30.767Z,303.75
2023-01-21T11:58:30.743Z,303.75
2023-01-21T11:59:32.936Z,303.75
2023-01-21T12:00:30.710Z,303.75
2023-01-21T12:01:30.717Z,303.75
2023-01-21T12:02:30.748Z,281.25
2023-01-21T12:03:30.769Z,258.75
2023-01-21T12:04:30.657Z,258.75
2023-01-21T12:05:30.671Z,258.75
2023-01-21T12:06:30.644Z,253.12
2023-01-21T12:07:30.637Z,258.75
2023-01-21T12:08:30.612Z,286.88
2023-01-21T12:09:30.599Z,315.00
2023-01-21T12:10:30.596Z,326.25
2023-01-21T12:11:30.573Z,337.50
2023-01-21T12:12:31.586Z,343.12
2023-01-21T12:13:30.539Z,354.38
2023-01-21T12:14:30.537Z,382.50
2023-01-21T12:15:30.519Z,382.50
2023-01-21T12:16:30.515Z,382.50
2023-01-21T12:17:30.508Z,393.75
2023-01-21T12:18:30.489Z,410.62
2023-01-21T12:19:30.479Z,416.25
2023-01-21T12:20:30.477Z,416.25
2023-01-21T12:21:30.445Z,410.62
2023-01-21T12:22:30.448Z,405.00
2023-01-21T12:23:30.431Z,393.75
2023-01-21T12:24:30.412Z,376.88
2023-01-21T12:25:30.399Z,354.38
2023-01-21T12:26:30.390Z,337.50
2023-01-21T12:27:30.391Z,326.25
2023-01-21T12:28:30.350Z,326.25
2023-01-21T12:29:30.369Z,326.25
2023-01-21T12:30:30.399Z,326.25
2023-01-21T12:31:30.341Z,326.25
2023-01-21T12:32:30.317Z,309.38
2023-01-21T12:33:30.318Z,298.12
2023-01-21T12:34:30.341Z,298.12
2023-01-21T12:35:30.283Z,309.38
2023-01-21T12:36:30.253Z,298.12
2023-01-21T12:37:30.263Z,303.75
2023-01-21T12:38:30.220Z,292.50
2023-01-21T12:39:30.242Z,286.88
2023-01-21T12:40:30.214Z,286.88
2023-01-21T12:41:30.209Z,292.50
2023-01-21T12:42:30.195Z,303.75
2023-01-21T12:43:30.187Z,320.62
2023-01-21T12:44:30.154Z,326.25
2023-01-21T12:45:30.163Z,343.12
2023-01-21T12:46:30.184Z,343.12
2023-01-21T12:47:30.144Z,348.75
2023-01-21T12:48:30.126Z,354.38
2023-01-21T12:49:30.095Z,343.12
2023-01-21T12:50:30.087Z,337.50
2023-01-21T12:51:30.074Z,337.50
2023-01-21T12:52:30.086Z,337.50
2023-01-21T12:53:30.045Z,337.50
2023-01-21T12:54:30.050Z,315.00
2023-01-21T12:55:30.026Z,309.38
2023-01-21T12:56:30.011Z,292.50
2023-01-21T12:57:30.058Z,281.25